Time;durP1;ratioP1;P1;durP2;ratioP2;P2;SDS_P1;SDS_P2;PMS_P1;PMS_P2;Temp;Humidity;BMP_temperature;BMP_pressure;BME280_temperature;BME280_humidity;BME280_pressure;Samples;Min_cycle;Max_cycle;Signal;HPM_P1;HPM_P2
2023/08/24 00:00:45;;;;;;;9.82;5.97;;;;;;;-148.15;100.00;61821.78;4969128;28;20419;-93
2023/08/24 00:03:10;;;;;;;8.85;5.75;;;;;;;-148.15;100.00;61821.78;4983515;28;20027;-93
2023/08/24 00:05:36;;;;;;;10.30;5.83;;;;;;;-148.15;100.00;61821.78;4983336;28;20034;-92
2023/08/24 00:08:04;;;;;;;7.50;5.35;;;;;;;-148.15;100.00;61821.78;4980460;28;20038;-93
2023/08/24 00:13:08;;;;;;;9.82;5.50;;;;;;;-148.15;100.00;61821.78;5437473;23;20086;-92
2023/08/24 00:15:36;;;;;;;7.22;5.35;;;;;;;-148.15;100.00;61821.78;5012235;28;20078;-92
2023/08/24 00:18:02;;;;;;;9.20;5.80;;;;;;;-148.15;100.00;61821.78;5011938;28;20049;-93
2023/08/24 00:20:27;;;;;;;10.13;5.73;;;;;;;-148.15;100.00;61821.78;5015842;28;20306;-92
2023/08/24 00:22:53;;;;;;;7.47;5.57;;;;;;;-148.15;100.00;61821.78;5016751;28;20034;-92
2023/08/24 00:25:18;;;;;;;7.43;5.30;;;;;;;-148.15;100.00;61821.78;5009945;28;20052;-91
2023/08/24 00:27:44;;;;;;;6.53;5.67;;;;;;;-148.15;100.00;61821.78;4994603;28;20488;-91
2023/08/24 00:30:10;;;;;;;9.45;5.65;;;;;;;-148.15;100.00;61821.78;4999883;28;20034;-91
2023/08/24 00:32:36;;;;;;;9.05;6.20;;;;;;;-148.15;100.00;61821.78;4997392;28;20032;-92
2023/08/24 00:35:10;;;;;;;7.90;5.70;;;;;;;-148.15;100.00;61821.78;4997703;28;20110;-93
2023/08/24 00:37:35;;;;;;;9.38;5.90;;;;;;;-148.15;100.00;61821.78;4989973;28;20026;-93
2023/08/24 00:40:04;;;;;;;7.55;6.13;;;;;;;-148.15;100.00;61821.78;4995505;28;20051;-92
2023/08/24 00:42:31;;;;;;;7.78;5.70;;;;;;;-148.15;100.00;61821.78;5009465;28;20011;-92
2023/08/24 00:44:57;;;;;;;7.05;6.20;;;;;;;-148.15;100.00;61821.78;5000064;28;20030;-92
2023/08/24 00:47:22;;;;;;;10.13;6.32;;;;;;;-148.15;100.00;61821.78;4996255;28;20023;-93
2023/08/24 00:49:48;;;;;;;9.90;6.47;;;;;;;-148.15;100.00;61821.78;4996516;28;20030;-92
2023/08/24 00:52:14;;;;;;;8.20;6.30;;;;;;;-148.15;100.00;61821.78;4998194;28;20030;-92
2023/08/24 00:54:40;;;;;;;9.82;6.38;;;;;;;-148.15;100.00;61821.78;4997069;28;20038;-93
2023/08/24 00:57:06;;;;;;;8.82;6.70;;;;;;;-148.15;100.00;61821.78;4997660;28;20026;-92
2023/08/24 00:59:33;;;;;;;8.13;6.78;;;;;;;-148.15;100.00;61821.78;5006129;28;20026;-92
2023/08/24 01:01:59;;;;;;;8.83;6.60;;;;;;;-148.15;100.00;61821.78;5016266;28;20014;-92
2023/08/24 01:04:25;;;;;;;11.73;6.78;;;;;;;-148.15;100.00;61821.78;5016403;28;20014;-92
2023/08/24 01:06:51;;;;;;;10.18;6.80;;;;;;;-148.15;100.00;61821.78;5016669;28;20041;-92
2023/08/24 01:09:16;;;;;;;9.70;6.43;;;;;;;-148.15;100.00;61821.78;5016001;28;20030;-91
2023/08/24 01:12:00;;;;;;;8.80;6.50;;;;;;;-148.15;100.00;61821.78;5015077;28;20281;-92
2023/08/24 01:14:49;;;;;;;8.48;6.43;;;;;;;-148.15;100.00;61821.78;5016196;28;20018;-91
2023/08/24 01:17:21;;;;;;;8.55;6.40;;;;;;;-148.15;100.00;61821.78;4993816;28;20445;-92
2023/08/24 01:19:47;;;;;;;8.13;6.70;;;;;;;-148.15;100.00;61821.78;4996530;28;20023;-92
2023/08/24 01:22:27;;;;;;;8.93;6.13;;;;;;;-148.15;100.00;61821.78;4986725;28;20166;-93
2023/08/24 01:25:10;;;;;;;9.60;6.27;;;;;;;-148.15;100.00;61821.78;4991129;28;20102;-92
2023/08/24 01:27:36;;;;;;;10.33;7.00;;;;;;;-148.15;100.00;61821.78;4994897;28;20777;-92
2023/08/24 01:30:05;;;;;;;11.32;7.07;;;;;;;-148.15;100.00;61821.78;4971607;28;20037;-91
2023/08/24 01:32:32;;;;;;;10.68;7.20;;;;;;;-148.15;100.00;61821.78;4984795;28;20081;-92
2023/08/24 01:34:59;;;;;;;11.48;7.00;;;;;;;-148.15;100.00;61821.78;4977073;28;20034;-92
2023/08/24 01:37:25;;;;;;;11.23;7.45;;;;;;;-148.15;100.00;61821.78;4993864;28;20386;-93
2023/08/24 01:40:20;;;;;;;10.93;7.00;;;;;;;-148.15;100.00;61821.78;4993805;28;20022;-92
2023/08/24 01:43:03;;;;;;;10.88;7.28;;;;;;;-148.15;100.00;61821.78;4993551;28;20129;-92
2023/08/24 01:45:31;;;;;;;8.30;7.07;;;;;;;-148.15;100.00;61821.78;4994971;28;20496;-92
2023/08/24 01:47:58;;;;;;;9.88;7.00;;;;;;;-148.15;100.00;61821.78;4994547;28;20023;-92
2023/08/24 01:50:25;;;;;;;8.63;7.07;;;;;;;-148.15;100.00;61821.78;5002281;28;20122;-92
2023/08/24 01:52:50;;;;;;;12.45;6.90;;;;;;;-148.15;100.00;61821.78;4995774;28;20035;-92
2023/08/24 01:55:19;;;;;;;8.20;6.80;;;;;;;-148.15;100.00;61821.78;5005557;28;20045;-90
2023/08/24 01:57:45;;;;;;;10.20;7.00;;;;;;;-148.15;100.00;61821.78;4991886;28;20033;-89
2023/08/24 02:00:10;;;;;;;11.33;6.80;;;;;;;-148.15;100.00;61821.78;4993976;28;20022;-89
2023/08/24 02:02:36;;;;;;;8.45;6.55;;;;;;;-148.15;100.00;61821.78;4991704;28;20048;-89
2023/08/24 02:05:04;;;;;;;12.45;7.15;;;;;;;-148.15;100.00;61821.78;4990377;28;20077;-89
2023/08/24 02:07:30;;;;;;;10.03;6.60;;;;;;;-148.15;100.00;61821.78;4990963;28;20023;-88
2023/08/24 02:09:55;;;;;;;8.55;6.57;;;;;;;-148.15;100.00;61821.78;4990597;28;20034;-89
2023/08/24 02:12:21;;;;;;;11.03;6.90;;;;;;;-148.15;100.00;61821.78;4990551;28;20034;-89
2023/08/24 02:14:46;;;;;;;9.53;7.13;;;;;;;-148.15;100.00;61821.78;4991150;28;20397;-89
2023/08/24 02:17:12;;;;;;;9.60;7.33;;;;;;;-148.15;100.00;61821.78;4991553;28;20036;-90
2023/08/24 02:19:37;;;;;;;13.40;7.27;;;;;;;-148.15;100.00;61821.78;4990608;28;20785;-90
2023/08/24 02:22:02;;;;;;;7.77;6.50;;;;;;;-148.15;100.00;61821.78;4990456;28;20053;-89
2023/08/24 02:24:28;;;;;;;10.33;6.53;;;;;;;-148.15;100.00;61821.78;4974005;28;20097;-90
2023/08/24 02:26:53;;;;;;;10.60;6.93;;;;;;;-148.15;100.00;61821.78;4990811;28;20072;-89
2023/08/24 02:29:19;;;;;;;8.07;6.93;;;;;;;-148.15;100.00;61821.78;4991646;28;20026;-90
2023/08/24 02:31:44;;;;;;;11.33;6.50;;;;;;;-148.15;100.00;61821.78;4988638;28;20022;-89
2023/08/24 02:34:09;;;;;;;11.23;6.93;;;;;;;-148.15;100.00;61821.78;4976843;28;20549;-90
2023/08/24 02:36:35;;;;;;;9.10;6.80;;;;;;;-148.15;100.00;61821.78;4993674;28;20037;-89
2023/08/24 02:39:01;;;;;;;11.77;6.40;;;;;;;-148.15;100.00;61821.78;4977252;28;20058;-89
2023/08/24 02:41:26;;;;;;;10.97;7.27;;;;;;;-148.15;100.00;61821.78;4992764;28;20033;-89
2023/08/24 02:43:52;;;;;;;12.73;6.70;;;;;;;-148.15;100.00;61821.78;4994592;28;20114;-89
2023/08/24 02:46:18;;;;;;;10.17;6.53;;;;;;;-148.15;100.00;61821.78;4993855;28;20030;-89
2023/08/24 02:48:44;;;;;;;9.20;6.70;;;;;;;-148.15;100.00;61821.78;4976630;28;20022;-89
2023/08/24 02:51:10;;;;;;;9.60;6.90;;;;;;;-148.15;100.00;61821.78;4993090;28;20035;-89
2023/08/24 02:53:36;;;;;;;14.18;7.47;;;;;;;-148.15;100.00;61821.78;4994237;28;20034;-89
2023/08/24 02:56:02;;;;;;;10.90;7.25;;;;;;;-148.15;100.00;61821.78;4976587;28;20105;-89
2023/08/24 02:58:27;;;;;;;10.15;7.85;;;;;;;-148.15;100.00;61821.78;4993512;28;20030;-89
2023/08/24 03:00:53;;;;;;;19.10;8.07;;;;;;;-148.15;100.00;61821.78;4992213;28;20386;-89
2023/08/24 03:03:19;;;;;;;14.47;7.63;;;;;;;-148.15;100.00;61821.78;4994428;28;20019;-88
2023/08/24 03:06:02;;;;;;;14.05;8.30;;;;;;;-148.15;100.00;61821.78;4992992;28;20424;-89
2023/08/24 03:08:29;;;;;;;13.75;8.38;;;;;;;-148.15;100.00;61821.78;4974681;28;20030;-88
2023/08/24 03:10:55;;;;;;;11.85;8.85;;;;;;;-148.15;100.00;61821.78;4983574;28;20018;-88
2023/08/24 03:13:21;;;;;;;17.13;9.20;;;;;;;-148.15;100.00;61821.78;4996028;28;20030;-88
2023/08/24 03:15:46;;;;;;;16.70;9.70;;;;;;;-148.15;100.00;61821.78;4994206;28;20033;-87
2023/08/24 03:18:13;;;;;;;11.33;9.13;;;;;;;-148.15;100.00;61821.78;4994343;28;20029;-87
2023/08/24 03:20:39;;;;;;;12.63;9.52;;;;;;;-148.15;100.00;61821.78;4995963;28;20036;-89
2023/08/24 03:23:05;;;;;;;15.70;10.23;;;;;;;-148.15;100.00;61821.78;4996730;28;20051;-88
2023/08/24 03:25:31;;;;;;;15.20;10.52;;;;;;;-148.15;100.00;61821.78;4996181;28;20025;-88
2023/08/24 03:27:57;;;;;;;15.85;11.68;;;;;;;-148.15;100.00;61821.78;4995864;28;20041;-88
2023/08/24 03:30:22;;;;;;;16.17;11.17;;;;;;;-148.15;100.00;61821.78;4997239;28;20474;-88
2023/08/24 03:32:48;;;;;;;17.58;11.38;;;;;;;-148.15;100.00;61821.78;4994529;28;20125;-88
2023/08/24 03:35:13;;;;;;;17.73;12.43;;;;;;;-148.15;100.00;61821.78;4994329;28;20430;-88
2023/08/24 03:37:38;;;;;;;23.60;12.30;;;;;;;-148.15;100.00;61821.78;4993319;28;20671;-87
2023/08/24 03:40:06;;;;;;;20.80;12.83;;;;;;;-148.15;100.00;61821.78;4992524;28;20038;-88
2023/08/24 03:42:31;;;;;;;20.38;13.23;;;;;;;-148.15;100.00;61821.78;4993978;28;20038;-87
2023/08/24 03:44:59;;;;;;;22.40;13.40;;;;;;;-148.15;100.00;61821.78;5004712;28;20057;-87
2023/08/24 03:47:24;;;;;;;20.57;13.30;;;;;;;-148.15;100.00;61821.78;4995639;28;20343;-88
2023/08/24 03:49:50;;;;;;;25.70;14.18;;;;;;;-148.15;100.00;61821.78;4991914;28;20045;-88
2023/08/24 03:52:15;;;;;;;21.20;13.60;;;;;;;-148.15;100.00;61821.78;4990960;28;20035;-88
2023/08/24 03:54:40;;;;;;;23.90;14.07;;;;;;;-148.15;100.00;61821.78;4991177;28;20483;-88
2023/08/24 03:57:06;;;;;;;24.60;14.15;;;;;;;-148.15;100.00;61821.78;4991492;28;20041;-89
2023/08/24 03:59:31;;;;;;;23.37;13.43;;;;;;;-148.15;100.00;61821.78;4992184;28;20469;-88
2023/08/24 04:02:01;;;;;;;21.83;13.33;;;;;;;-148.15;100.00;61821.78;4990629;28;20141;-88
2023/08/24 04:04:27;;;;;;;21.60;13.68;;;;;;;-148.15;100.00;61821.78;4991966;28;20034;-88
2023/08/24 04:06:52;;;;;;;24.17;15.05;;;;;;;-148.15;100.00;61821.78;4973952;28;20398;-88
2023/08/24 04:09:17;;;;;;;22.83;13.83;;;;;;;-148.15;100.00;61821.78;4972995;28;20057;-88
2023/08/24 04:11:43;;;;;;;28.77;14.43;;;;;;;-148.15;100.00;61821.78;4983685;28;20022;-88
2023/08/24 04:14:08;;;;;;;27.27;15.57;;;;;;;-148.15;100.00;61821.78;4992511;28;20482;-88
2023/08/24 04:16:33;;;;;;;24.30;16.50;;;;;;;-148.15;100.00;61821.78;4998352;28;20119;-88
2023/08/24 04:18:59;;;;;;;21.87;15.77;;;;;;;-148.15;100.00;61821.78;4993529;28;20500;-89
2023/08/24 04:21:24;;;;;;;27.83;16.50;;;;;;;-148.15;100.00;61821.78;4994149;28;20036;-88
2023/08/24 04:23:49;;;;;;;23.40;17.10;;;;;;;-148.15;100.00;61821.78;4997238;28;20058;-89
2023/08/24 04:26:15;;;;;;;24.97;16.43;;;;;;;-148.15;100.00;61821.78;4980482;28;20027;-88
2023/08/24 04:28:40;;;;;;;32.77;17.57;;;;;;;-148.15;100.00;61821.78;4982177;28;20037;-89
2023/08/24 04:31:05;;;;;;;27.63;17.27;;;;;;;-148.15;100.00;61821.78;4998108;28;20037;-89
2023/08/24 04:33:31;;;;;;;30.10;17.58;;;;;;;-148.15;100.00;61821.78;4979942;28;20026;-89
2023/08/24 04:35:56;;;;;;;26.53;17.90;;;;;;;-148.15;100.00;61821.78;4985296;28;20030;-88
2023/08/24 04:38:23;;;;;;;24.23;15.93;;;;;;;-148.15;100.00;61821.78;5001454;28;20076;-89
2023/08/24 04:40:52;;;;;;;25.83;15.80;;;;;;;-148.15;100.00;61821.78;5001269;28;20081;-89
2023/08/24 04:43:22;;;;;;;24.08;16.38;;;;;;;-148.15;100.00;61821.78;4999950;28;20022;-88
2023/08/24 04:45:52;;;;;;;27.75;15.75;;;;;;;-148.15;100.00;61821.78;4997485;28;20657;-89
2023/08/24 04:48:18;;;;;;;26.67;17.30;;;;;;;-148.15;100.00;61821.78;4997887;28;20041;-89
2023/08/24 04:50:45;;;;;;;22.17;16.30;;;;;;;-148.15;100.00;61821.78;4998623;28;20023;-90
2023/08/24 04:53:12;;;;;;;24.00;16.37;;;;;;;-148.15;100.00;61821.78;4999069;28;20309;-90
2023/08/24 04:55:38;;;;;;;24.08;16.15;;;;;;;-148.15;100.00;61821.78;4998946;28;20022;-90
2023/08/24 04:58:03;;;;;;;24.02;15.55;;;;;;;-148.15;100.00;61821.78;5001638;28;20097;-90
2023/08/24 05:00:29;;;;;;;30.53;15.70;;;;;;;-148.15;100.00;61821.78;5000467;28;20037;-90
2023/08/24 05:02:54;;;;;;;24.63;16.63;;;;;;;-148.15;100.00;61821.78;4997978;28;20031;-89
2023/08/24 05:05:20;;;;;;;22.57;15.30;;;;;;;-148.15;100.00;61821.78;5004863;28;20049;-87
2023/08/24 05:07:45;;;;;;;24.00;15.57;;;;;;;-148.15;100.00;61821.78;4979472;28;20034;-89
2023/08/24 05:10:11;;;;;;;23.30;16.53;;;;;;;-148.15;100.00;61821.78;4973918;28;20116;-89
2023/08/24 05:12:36;;;;;;;28.65;15.90;;;;;;;-148.15;100.00;61821.78;4986437;28;20034;-89
2023/08/24 05:15:02;;;;;;;25.17;16.27;;;;;;;-148.15;100.00;61821.78;4974863;28;20078;-89
2023/08/24 05:17:28;;;;;;;24.77;16.95;;;;;;;-148.15;100.00;61821.78;4991383;28;20540;-89
2023/08/24 05:19:54;;;;;;;27.13;16.87;;;;;;;-148.15;100.00;61821.78;4991878;28;20121;-89
2023/08/24 05:22:20;;;;;;;27.88;18.73;;;;;;;-148.15;100.00;61821.78;4990569;28;20049;-89
2023/08/24 05:24:46;;;;;;;26.03;18.00;;;;;;;-148.15;100.00;61821.78;4991146;28;20181;-89
2023/08/24 05:27:11;;;;;;;33.13;18.40;;;;;;;-148.15;100.00;61821.78;4990854;28;20038;-89
2023/08/24 05:29:36;;;;;;;26.23;18.03;;;;;;;-148.15;100.00;61821.78;4991265;28;20041;-89
2023/08/24 05:32:02;;;;;;;21.27;15.93;;;;;;;-148.15;100.00;61821.78;4964973;28;20026;-90
2023/08/24 05:34:28;;;;;;;29.90;17.65;;;;;;;-148.15;100.00;61821.78;4993419;28;20030;-93
2023/08/24 05:36:53;;;;;;;28.50;17.77;;;;;;;-148.15;100.00;61821.78;4991577;28;20090;-89
2023/08/24 05:39:18;;;;;;;26.93;17.57;;;;;;;-148.15;100.00;61821.78;4992206;28;20364;-92
2023/08/24 05:41:44;;;;;;;26.33;17.70;;;;;;;-148.15;100.00;61821.78;4995510;28;20022;-93
2023/08/24 05:44:09;;;;;;;24.33;17.47;;;;;;;-148.15;100.00;61821.78;4979237;28;20030;-92
2023/08/24 05:46:34;;;;;;;22.77;17.23;;;;;;;-148.15;100.00;61821.78;4990280;28;20382;-95
2023/08/24 05:49:00;;;;;;;26.67;17.67;;;;;;;-148.15;100.00;61821.78;4974053;28;20409;-95
2023/08/24 05:51:25;;;;;;;26.00;18.27;;;;;;;-148.15;100.00;61821.78;4981190;28;20026;-94
2023/08/24 05:53:55;;;;;;;28.13;18.23;;;;;;;-148.15;100.00;61821.78;5011602;28;20289;-96
2023/08/24 05:56:21;;;;;;;28.77;18.77;;;;;;;-148.15;100.00;61821.78;4993622;28;20482;-94
2023/08/24 05:58:47;;;;;;;29.42;18.08;;;;;;;-148.15;100.00;61821.78;5001616;28;20037;-93
2023/08/24 06:01:12;;;;;;;25.57;18.20;;;;;;;-148.15;100.00;61821.78;4998774;28;20386;-94
2023/08/24 06:03:37;;;;;;;29.97;19.73;;;;;;;-148.15;100.00;61821.78;4981389;28;20038;-95
2023/08/24 06:06:04;;;;;;;25.90;17.90;;;;;;;-148.15;100.00;61821.78;4987353;28;20035;-96
2023/08/24 06:08:31;;;;;;;31.42;19.98;;;;;;;-148.15;100.00;61821.78;4996590;28;20028;-96
2023/08/24 06:10:58;;;;;;;26.38;18.38;;;;;;;-148.15;100.00;61821.78;4993588;28;20397;-96
2023/08/24 06:13:23;;;;;;;31.75;19.58;;;;;;;-148.15;100.00;61821.78;4998782;28;20100;-96
2023/08/24 06:15:49;;;;;;;26.38;18.13;;;;;;;-148.15;100.00;61821.78;4982415;28;20022;-95
2023/08/24 06:18:15;;;;;;;27.80;18.40;;;;;;;-148.15;100.00;61821.78;4999371;28;20026;-95
2023/08/24 06:20:40;;;;;;;29.08;20.02;;;;;;;-148.15;100.00;61821.78;4997452;28;20057;-96
2023/08/24 06:23:07;;;;;;;28.43;18.37;;;;;;;-148.15;100.00;61821.78;4988694;28;20122;-95
2023/08/24 06:25:33;;;;;;;34.58;19.80;;;;;;;-148.15;100.00;61821.78;4991716;28;20037;-96
2023/08/24 06:27:59;;;;;;;26.95;19.98;;;;;;;-148.15;100.00;61821.78;4998153;28;20018;-95
2023/08/24 06:30:36;;;;;;;30.57;19.37;;;;;;;-148.15;100.00;61821.78;5003410;28;20027;-96
2023/08/24 06:33:03;;;;;;;30.63;20.30;;;;;;;-148.15;100.00;61821.78;5026334;23;20035;-96
2023/08/24 06:35:29;;;;;;;23.63;16.83;;;;;;;-148.15;100.00;61821.78;4987428;28;20038;-89
2023/08/24 06:37:54;;;;;;;31.27;19.10;;;;;;;-148.15;100.00;61821.78;4976731;28;20041;-96
2023/08/24 06:40:23;;;;;;;27.17;19.00;;;;;;;-148.15;100.00;61821.78;5104604;23;20042;-96
2023/08/24 06:42:50;;;;;;;28.77;19.40;;;;;;;-148.15;100.00;61821.78;4988959;28;20049;-96
2023/08/24 06:45:17;;;;;;;26.30;18.00;;;;;;;-148.15;100.00;61821.78;5009003;28;20022;-96
2023/08/24 06:48:06;;;;;;;29.67;18.13;;;;;;;-148.15;100.00;61821.78;5064139;23;20058;-96
2023/08/24 06:50:32;;;;;;;27.92;18.38;;;;;;;-148.15;100.00;61821.78;5231305;23;20041;-96
2023/08/24 06:52:57;;;;;;;25.67;16.58;;;;;;;-148.15;100.00;61821.78;5004789;28;20030;-96
2023/08/24 06:55:23;;;;;;;25.90;16.93;;;;;;;-148.15;100.00;61821.78;5004763;28;20010;-96
2023/08/24 07:08:16;;;;;;;18.08;15.07;;;;;;;-148.15;100.00;61821.78;5588543;23;20030;-96
2023/08/24 07:10:42;;;;;;;22.60;15.63;;;;;;;-148.15;100.00;61821.78;5019306;28;20061;-96
2023/08/24 07:13:09;;;;;;;20.55;15.20;;;;;;;-148.15;100.00;61821.78;5079032;23;20039;-96
2023/08/24 07:15:39;;;;;;;20.53;14.80;;;;;;;-148.15;100.00;61821.78;5018061;28;20049;-96
2023/08/24 07:23:29;;;;;;;18.10;14.63;;;;;;;-148.15;100.00;61821.78;5016056;26;20034;-96
2023/08/24 07:26:00;;;;;;;21.88;13.45;;;;;;;-148.15;100.00;61821.78;5221208;23;20046;-96
2023/08/24 07:28:26;;;;;;;19.88;14.90;;;;;;;-148.15;100.00;61821.78;5013331;28;20026;-96
2023/08/24 07:38:37;;;;;;;17.88;13.38;;;;;;;-148.15;100.00;61821.78;5031138;28;20081;-96
2023/08/24 07:41:03;;;;;;;17.88;13.40;;;;;;;-148.15;100.00;61821.78;5017234;28;20022;-96
2023/08/24 07:43:29;;;;;;;17.92;13.52;;;;;;;-148.15;100.00;61821.78;5037207;28;20040;-96
2023/08/24 07:45:54;;;;;;;18.30;12.70;;;;;;;-148.15;100.00;61821.78;5038270;28;20089;-96
2023/08/24 07:48:20;;;;;;;19.20;12.90;;;;;;;-148.15;100.00;61821.78;5037438;28;20033;-96
2023/08/24 07:51:20;;;;;;;16.33;11.93;;;;;;;-148.15;100.00;61821.78;5038622;28;20025;-96
2023/08/24 08:24:46;;;;;;;18.45;10.60;;;;;;;-148.15;100.00;61821.78;5015969;28;20041;-96
2023/08/24 08:27:14;;;;;;;16.83;11.05;;;;;;;-148.15;100.00;61821.78;5017648;28;20083;-96
2023/08/24 08:30:25;;;;;;;14.82;11.40;;;;;;;-148.15;100.00;61821.78;5078729;23;20034;-96
2023/08/24 08:33:21;;;;;;;17.30;10.90;;;;;;;-148.15;100.00;61821.78;5116088;23;20034;-96
2023/08/24 09:04:23;;;;;;;15.30;11.50;;;;;;;-148.15;100.00;61821.78;5012544;28;20054;-96
2023/08/24 09:06:50;;;;;;;16.63;10.90;;;;;;;-148.15;100.00;61821.78;5015333;28;20002;-96
2023/08/24 09:09:18;;;;;;;15.60;12.43;;;;;;;-148.15;100.00;61821.78;5017302;28;20014;-96
2023/08/24 09:11:47;;;;;;;16.05;11.90;;;;;;;-148.15;100.00;61821.78;5017675;28;20011;-96
2023/08/24 09:14:14;;;;;;;15.13;12.32;;;;;;;-148.15;100.00;61821.78;4977910;29;20053;-95
2023/08/24 09:16:41;;;;;;;18.15;12.27;;;;;;;-148.15;100.00;61821.78;5013784;28;20035;-96
2023/08/24 09:19:49;;;;;;;17.63;12.25;;;;;;;-148.15;100.00;61821.78;5017217;28;20018;-96
2023/08/24 09:22:15;;;;;;;15.00;11.18;;;;;;;-148.15;100.00;61821.78;5017244;28;20043;-96
2023/08/24 09:24:40;;;;;;;14.90;10.43;;;;;;;-148.15;100.00;61821.78;5017442;28;20033;-96
2023/08/24 09:27:21;;;;;;;13.05;9.80;;;;;;;-148.15;100.00;61821.78;5016340;28;20478;-96
2023/08/24 09:30:11;;;;;;;14.98;10.57;;;;;;;-148.15;100.00;61821.78;5015582;28;20026;-96
2023/08/24 09:32:40;;;;;;;16.10;9.88;;;;;;;-148.15;100.00;61821.78;5016950;28;20042;-96
2023/08/24 09:35:10;;;;;;;17.43;9.90;;;;;;;-148.15;100.00;61821.78;5059075;23;20270;-95
2023/08/24 09:37:37;;;;;;;15.93;10.43;;;;;;;-148.15;100.00;61821.78;4998205;28;20270;-96
2023/08/24 09:40:08;;;;;;;13.82;8.52;;;;;;;-148.15;100.00;61821.78;4997598;28;20030;-96
2023/08/24 09:42:43;;;;;;;12.15;8.93;;;;;;;-148.15;100.00;61821.78;4997229;28;20015;-95
2023/08/24 09:45:12;;;;;;;13.50;8.68;;;;;;;-148.15;100.00;61821.78;5001834;28;20015;-96
2023/08/24 09:47:47;;;;;;;11.82;8.50;;;;;;;-148.15;100.00;61821.78;4997222;28;20037;-96
2023/08/24 09:50:14;;;;;;;12.35;8.65;;;;;;;-148.15;100.00;61821.78;4986466;28;20094;-96
2023/08/24 09:52:42;;;;;;;13.07;8.63;;;;;;;-148.15;100.00;61821.78;4978444;28;20042;-96
2023/08/24 09:55:09;;;;;;;11.02;8.68;;;;;;;-148.15;100.00;61821.78;4973841;28;20027;-96
2023/08/24 09:57:37;;;;;;;13.35;8.50;;;;;;;-148.15;100.00;61821.78;4980661;28;20054;-96
2023/08/24 10:00:15;;;;;;;13.57;8.93;;;;;;;-148.15;100.00;61821.78;4978818;28;20031;-96
2023/08/24 10:02:52;;;;;;;13.60;8.32;;;;;;;-148.15;100.00;61821.78;4991910;28;20101;-96
2023/08/24 10:05:20;;;;;;;12.38;8.02;;;;;;;-148.15;100.00;61821.78;4989742;28;20033;-96
2023/08/24 10:07:56;;;;;;;12.65;8.32;;;;;;;-148.15;100.00;61821.78;4988997;28;20035;-96
2023/08/24 10:10:25;;;;;;;14.83;8.40;;;;;;;-148.15;100.00;61821.78;4998091;28;20054;-96
2023/08/24 10:12:53;;;;;;;11.30;7.87;;;;;;;-148.15;100.00;61821.78;4997884;28;20305;-96
2023/08/24 10:15:22;;;;;;;15.68;8.68;;;;;;;-148.15;100.00;61821.78;4996138;28;20103;-96
2023/08/24 10:17:50;;;;;;;13.60;7.75;;;;;;;-148.15;100.00;61821.78;5002260;28;20015;-96
2023/08/24 10:20:19;;;;;;;10.48;7.85;;;;;;;-148.15;100.00;61821.78;4995374;28;20083;-94
2023/08/24 10:22:46;;;;;;;11.30;7.80;;;;;;;-148.15;100.00;61821.78;4982820;28;20011;-96
2023/08/24 10:25:24;;;;;;;9.93;8.15;;;;;;;-148.15;100.00;61821.78;4980519;28;20023;-96
2023/08/24 10:27:54;;;;;;;14.00;8.10;;;;;;;-148.15;100.00;61821.78;4981079;28;20125;-96
2023/08/24 10:30:21;;;;;;;13.50;7.57;;;;;;;-148.15;100.00;61821.78;4996195;28;20030;-96
2023/08/24 10:32:48;;;;;;;10.57;7.43;;;;;;;-148.15;100.00;61821.78;5001734;28;20058;-96
2023/08/24 10:35:16;;;;;;;11.50;7.78;;;;;;;-148.15;100.00;61821.78;5002121;28;20015;-95
2023/08/24 10:51:19;;;;;;;8.80;4.68;;;;;;;-148.15;100.00;61821.78;4999145;28;20043;-96
2023/08/24 10:54:32;;;;;;;12.88;4.90;;;;;;;-148.15;100.00;61821.78;4968430;28;20034;-96
2023/08/24 10:57:23;;;;;;;9.50;4.78;;;;;;;-148.15;100.00;61821.78;4995641;28;20046;-96
2023/08/24 10:59:59;;;;;;;5.43;3.72;;;;;;;-148.15;100.00;61821.78;4998231;28;20010;-96
2023/08/24 11:05:35;;;;;;;6.53;4.70;;;;;;;-148.15;100.00;61821.78;5333005;23;20085;-96
2023/08/24 11:08:05;;;;;;;9.27;4.53;;;;;;;-148.15;100.00;61821.78;4995058;28;20062;-96
2023/08/24 11:10:48;;;;;;;10.05;4.90;;;;;;;-148.15;100.00;61821.78;5000982;28;20115;-96
2023/08/24 11:13:22;;;;;;;10.23;5.28;;;;;;;-148.15;100.00;61821.78;4977026;29;20039;-96
2023/08/24 11:15:54;;;;;;;10.20;5.15;;;;;;;-148.15;100.00;61821.78;4979410;28;20031;-96
2023/08/24 11:18:24;;;;;;;8.80;5.45;;;;;;;-148.15;100.00;61821.78;4961158;28;20027;-96
2023/08/24 11:21:02;;;;;;;11.50;5.57;;;;;;;-148.15;100.00;61821.78;4977182;29;20011;-96
2023/08/24 11:23:31;;;;;;;9.87;5.13;;;;;;;-148.15;100.00;61821.78;4976217;29;20074;-95
2023/08/24 11:26:01;;;;;;;8.50;5.97;;;;;;;-148.15;100.00;61821.78;4978369;29;20285;-96
2023/08/24 11:28:29;;;;;;;11.63;6.13;;;;;;;-148.15;100.00;61821.78;4976564;29;20032;-96
2023/08/24 11:31:09;;;;;;;10.52;5.82;;;;;;;-148.15;100.00;61821.78;4949536;29;20105;-96
2023/08/24 11:33:38;;;;;;;12.45;5.43;;;;;;;-148.15;100.00;61821.78;4972437;28;20043;-95
2023/08/24 11:39:22;;;;;;;8.25;5.22;;;;;;;-148.15;100.00;61821.78;5035482;23;20042;-96
2023/08/24 11:59:55;;;;;;;8.23;5.18;;;;;;;-148.15;100.00;61821.78;5045355;23;20060;-95
2023/08/24 12:07:39;;;;;;;9.33;4.83;;;;;;;-148.15;100.00;61821.78;5089201;23;20321;-96
2023/08/24 12:10:06;;;;;;;8.13;5.55;;;;;;;-148.15;100.00;61821.78;5013821;28;20106;-95
2023/08/24 12:12:50;;;;;;;10.15;5.75;;;;;;;-148.15;100.00;61821.78;4997668;28;20057;-95
2023/08/24 12:15:22;;;;;;;12.13;5.72;;;;;;;-148.15;100.00;61821.78;4997330;28;20034;-95
2023/08/24 12:17:51;;;;;;;11.68;4.97;;;;;;;-148.15;100.00;61821.78;4999386;28;20071;-95
2023/08/24 12:20:30;;;;;;;11.00;4.72;;;;;;;-148.15;100.00;61821.78;4997247;28;20034;-95
2023/08/24 12:23:00;;;;;;;10.60;5.03;;;;;;;-148.15;100.00;61821.78;4993142;28;20118;-96
2023/08/24 12:29:39;;;;;;;12.95;5.00;;;;;;;-148.15;100.00;61821.78;4999439;28;20054;-96
2023/08/24 12:35:23;;;;;;;10.02;4.95;;;;;;;-148.15;100.00;61821.78;5146919;23;20062;-96
2023/08/24 12:42:55;;;;;;;7.97;4.53;;;;;;;-148.15;100.00;61821.78;5097186;23;20050;-96
2023/08/24 12:45:24;;;;;;;10.00;4.70;;;;;;;-148.15;100.00;61821.78;5014515;28;20280;-95
2023/08/24 12:47:52;;;;;;;10.25;4.85;;;;;;;-148.15;100.00;61821.78;5013142;28;20090;-96
2023/08/24 12:50:18;;;;;;;7.35;4.38;;;;;;;-148.15;100.00;61821.78;5009597;28;20011;-95
2023/08/24 12:52:45;;;;;;;10.88;4.68;;;;;;;-148.15;100.00;61821.78;5012644;28;20006;-96
2023/08/24 12:55:25;;;;;;;8.40;4.50;;;;;;;-148.15;100.00;61821.78;5035634;23;20475;-96
2023/08/24 12:57:53;;;;;;;7.00;4.40;;;;;;;-148.15;100.00;61821.78;5340294;23;21246;-96
2023/08/24 13:10:50;;;;;;;6.60;3.40;;;;;;;-148.15;100.00;61821.78;5015236;28;20065;-96
2023/08/24 13:13:18;;;;;;;5.83;3.73;;;;;;;-148.15;100.00;61821.78;5016715;28;20333;-96
2023/08/24 13:21:18;;;;;;;9.95;4.05;;;;;;;-148.15;100.00;61821.78;5301374;23;20028;-95
2023/08/24 13:26:20;;;;;;;7.18;3.80;;;;;;;-148.15;100.00;61821.78;5084156;23;20059;-95
2023/08/24 13:28:53;;;;;;;6.32;3.25;;;;;;;-148.15;100.00;61821.78;5013768;28;20038;-93
2023/08/24 13:31:18;;;;;;;7.77;3.33;;;;;;;-148.15;100.00;61821.78;5012999;28;20042;-95
2023/08/24 13:33:45;;;;;;;7.13;3.47;;;;;;;-148.15;100.00;61821.78;5016136;28;20010;-96
2023/08/24 13:36:15;;;;;;;8.65;2.78;;;;;;;-148.15;100.00;61821.78;5185530;23;20042;-95
2023/08/24 13:38:43;;;;;;;11.45;3.80;;;;;;;-148.15;100.00;61821.78;5040878;23;20085;-95
2023/08/24 13:41:09;;;;;;;5.50;3.22;;;;;;;-148.15;100.00;61821.78;4992579;28;20445;-94
2023/08/24 13:43:36;;;;;;;6.20;3.03;;;;;;;-148.15;100.00;61821.78;5008129;28;20019;-95
2023/08/24 13:46:09;;;;;;;5.53;3.10;;;;;;;-148.15;100.00;61821.78;5146079;23;20034;-95